KNUC

Details ICAO KNUC
Name San Clemente Island Nalf
Region United States
Timezone America/Los_Angeles (UTC-7.0)
Plans Departing 142
Arriving 160
Stats Elevation 182 ft / 55 m (AMSL)
Location 33.022745° -118.588487°
Runways 1
Magnetic Variation 11.817° E
Sunrise 2018-06-18 12:46:55 UTC / 2018-06-18 05:46:55 Local
Sunset 2018-06-19 03:06:43 UTC / 2018-06-18 20:06:43 Local
Advertisement - Login to hide

Runways

ID Width Length Bearing (true) Bearing (mag) Surface Threshold Offset Overrun Length
05 200 ft / 61 m 9,290 ft / 2,832 m 67.19° 55.37° Concrete 0 ft / 0 m 0 ft / 0 m
23 200 ft / 61 m 9,290 ft / 2,832 m 247.20° 235.38° Concrete 0 ft / 0 m 0 ft / 0 m

Map

Weather


0- 5 10 15 20 25 30 35+ Temperature / ° C

Clouds and Precipitation
Forecast for 2018-06-18 12:00 UTC. Updated 6 hours ago

Ground ~20,000 ft ~40,000 ft Winds

METAR

KNUC 181456Z 25006KT 10SM FEW015 OVC022 16/12 A3004 RMK AO2 SLP170 T01610117 52013

TAF

TAF KNUC 1815/1915 29012KT 9999 SCT015 OVC025 QNH2995INS TEMPO 1817/1823 SCT020 BKN030 FM182300 29012KT 9999 SCT015 BKN025 QNH2990INS TEMPO 1823/1905 SCT015 BKN030 T19/1821Z T15/1912Z FS30024

Frequencies

Ground 119.55 MHz GND
Tower 120.85 MHz BEAVER CON
Tower 126.75 MHz TWR
Warning: Do not use this data for real-world aviation or navigation. No guarantee of current accuracy is given.